createdAt,value
2023-04-16T00:00:22.750Z,22.17
2023-04-16T00:01:22.754Z,22.17
2023-04-16T00:02:22.897Z,22.17
2023-04-16T00:03:23.065Z,22.17
2023-04-16T00:04:22.847Z,22.16
2023-04-16T00:05:22.790Z,22.16
2023-04-16T00:06:22.739Z,22.16
2023-04-16T00:07:22.740Z,22.16
2023-04-16T00:08:22.710Z,22.16
2023-04-16T00:09:22.703Z,22.15
2023-04-16T00:10:22.713Z,22.16
2023-04-16T00:11:22.746Z,22.15
2023-04-16T00:12:22.670Z,22.15
2023-04-16T00:13:22.742Z,22.15
2023-04-16T00:14:22.680Z,22.15
2023-04-16T00:15:22.652Z,22.14
2023-04-16T00:16:22.745Z,22.14
2023-04-16T00:17:22.669Z,22.14
2023-04-16T00:18:22.695Z,22.14
2023-04-16T00:19:22.616Z,22.13
2023-04-16T00:20:22.619Z,22.14
2023-04-16T00:21:22.623Z,22.12
2023-04-16T00:22:22.635Z,22.13
2023-04-16T00:23:22.591Z,22.12
2023-04-16T00:24:22.629Z,22.11
2023-04-16T00:25:22.616Z,22.12
2023-04-16T00:26:22.620Z,22.12
2023-04-16T00:27:22.632Z,22.11
2023-04-16T00:28:22.633Z,22.12
2023-04-16T00:29:22.663Z,22.10
2023-04-16T00:30:22.698Z,22.11
2023-04-16T00:31:22.808Z,22.12
2023-04-16T00:32:22.773Z,22.11
2023-04-16T00:33:22.781Z,22.10
2023-04-16T00:34:22.826Z,22.10
2023-04-16T00:35:22.824Z,22.10
2023-04-16T00:36:22.885Z,22.10
2023-04-16T00:37:22.928Z,22.10
2023-04-16T00:38:22.906Z,22.10
2023-04-16T00:39:22.933Z,22.09
2023-04-16T00:40:22.966Z,22.10
2023-04-16T00:41:23.063Z,22.09
2023-04-16T00:42:23.036Z,22.08
2023-04-16T00:43:23.095Z,22.08
2023-04-16T00:44:23.089Z,22.08
2023-04-16T00:45:23.144Z,22.08
2023-04-16T00:46:23.196Z,22.07
2023-04-16T00:47:23.221Z,22.08
2023-04-16T00:48:23.216Z,22.07
2023-04-16T00:49:23.284Z,22.07
2023-04-16T00:50:24.107Z,22.07
2023-04-16T00:51:23.295Z,22.06
2023-04-16T00:52:23.343Z,22.05
2023-04-16T00:53:23.332Z,22.06
2023-04-16T00:54:23.377Z,22.06
2023-04-16T00:55:23.426Z,22.05
2023-04-16T00:56:23.456Z,22.05
2023-04-16T00:57:23.473Z,22.05
2023-04-16T00:58:23.555Z,22.04
2023-04-16T00:59:23.505Z,22.04
2023-04-16T01:00:23.565Z,22.03
2023-04-16T01:01:23.678Z,22.03
2023-04-16T01:02:23.840Z,22.02
2023-04-16T01:03:23.876Z,22.01
2023-04-16T01:04:23.838Z,22.00
2023-04-16T01:05:23.808Z,22.00
2023-04-16T01:06:23.847Z,22.00
2023-04-16T01:07:23.930Z,21.99
2023-04-16T01:08:23.918Z,21.99
2023-04-16T01:09:23.987Z,21.98
2023-04-16T01:10:24.034Z,21.97
2023-04-16T01:11:24.051Z,21.96
2023-04-16T01:12:24.112Z,21.96
2023-04-16T01:13:24.169Z,21.96
2023-04-16T01:14:24.229Z,21.96
2023-04-16T01:15:24.233Z,21.95
2023-04-16T01:16:24.430Z,21.94
2023-04-16T01:17:24.338Z,21.95
2023-04-16T01:18:24.406Z,21.94
2023-04-16T01:19:24.415Z,21.94
2023-04-16T01:20:24.461Z,21.94
2023-04-16T01:21:24.529Z,21.95
2023-04-16T01:22:24.544Z,21.95
2023-04-16T01:23:24.576Z,21.94
2023-04-16T01:24:24.648Z,21.95
2023-04-16T01:25:24.701Z,21.95
2023-04-16T01:26:24.697Z,21.95
2023-04-16T01:27:24.772Z,21.95
2023-04-16T01:28:24.815Z,21.94
2023-04-16T01:29:24.843Z,21.96
2023-04-16T01:30:24.845Z,21.94
2023-04-16T01:31:24.995Z,21.94
2023-04-16T01:32:25.082Z,21.94
2023-04-16T01:33:25.133Z,21.94
2023-04-16T01:34:25.058Z,21.93
2023-04-16T01:35:25.145Z,21.94
2023-04-16T01:36:25.143Z,21.93
2023-04-16T01:37:25.290Z,21.93
2023-04-16T01:38:25.260Z,21.93
2023-04-16T01:39:25.267Z,21.93
2023-04-16T01:40:25.326Z,21.92
2023-04-16T01:41:25.374Z,21.92
2023-04-16T01:42:25.449Z,21.92
2023-04-16T01:43:25.466Z,21.92
2023-04-16T01:44:25.626Z,21.92
2023-04-16T01:45:25.535Z,21.92
2023-04-16T01:46:25.630Z,21.92
2023-04-16T01:47:25.631Z,21.91
2023-04-16T01:48:25.748Z,21.91
2023-04-16T01:49:25.744Z,21.91
2023-04-16T01:50:25.801Z,21.91
2023-04-16T01:51:26.098Z,21.90
2023-04-16T01:52:25.879Z,21.89
2023-04-16T01:53:25.899Z,21.89
2023-04-16T01:54:26.012Z,21.89
2023-04-16T01:55:26.011Z,21.87
2023-04-16T01:56:26.105Z,21.87
2023-04-16T01:57:26.111Z,21.87
2023-04-16T01:58:26.152Z,21.86
2023-04-16T01:59:26.217Z,21.85
2023-04-16T02:00:26.278Z,21.85
2023-04-16T02:01:26.472Z,21.84
2023-04-16T02:02:26.516Z,21.85
2023-04-16T02:03:26.663Z,21.84
2023-04-16T02:04:26.450Z,21.85
2023-04-16T02:05:26.496Z,21.85
2023-04-16T02:06:26.581Z,21.84
2023-04-16T02:07:26.623Z,21.84
2023-04-16T02:08:26.641Z,21.84
2023-04-16T02:09:26.737Z,21.84
2023-04-16T02:10:26.813Z,21.83
2023-04-16T02:11:26.852Z,21.83
2023-04-16T02:12:26.945Z,21.83
2023-04-16T02:13:26.963Z,21.82
2023-04-16T02:14:27.039Z,21.82
2023-04-16T02:15:27.122Z,21.82
2023-04-16T02:16:27.150Z,21.81
2023-04-16T02:17:27.204Z,21.81
2023-04-16T02:18:27.191Z,21.81
2023-04-16T02:19:27.273Z,21.80
2023-04-16T02:20:27.432Z,21.81
2023-04-16T02:21:27.385Z,21.81
2023-04-16T02:22:27.503Z,21.81
2023-04-16T02:23:27.506Z,21.81
2023-04-16T02:24:27.617Z,21.81
2023-04-16T02:25:27.630Z,21.81
2023-04-16T02:26:27.673Z,21.80
2023-04-16T02:27:27.736Z,21.80
2023-04-16T02:28:27.791Z,21.79
2023-04-16T02:29:27.861Z,21.78
2023-04-16T02:30:27.908Z,21.79
2023-04-16T02:31:28.086Z,21.79
2023-04-16T02:32:28.148Z,21.79
2023-04-16T02:33:28.083Z,21.79
2023-04-16T02:34:28.196Z,21.79
2023-04-16T02:35:28.183Z,21.78
2023-04-16T02:36:28.256Z,21.78
2023-04-16T02:37:28.313Z,21.78
2023-04-16T02:38:28.355Z,21.78
2023-04-16T02:39:28.433Z,21.77
2023-04-16T02:40:28.478Z,21.76
2023-04-16T02:41:28.615Z,21.76
2023-04-16T02:42:28.629Z,21.75
2023-04-16T02:43:28.655Z,21.75
2023-04-16T02:44:28.727Z,21.75
2023-04-16T02:45:28.852Z,21.74
2023-04-16T02:46:28.977Z,21.75
2023-04-16T02:47:31.601Z,21.74
2023-04-16T02:48:28.899Z,21.74
2023-04-16T02:49:28.922Z,21.74
2023-04-16T02:50:28.916Z,21.73
2023-04-16T02:51:28.923Z,21.73
2023-04-16T02:52:28.937Z,21.73
2023-04-16T02:53:28.927Z,21.73
2023-04-16T02:54:28.936Z,21.73
2023-04-16T02:55:28.838Z,21.73
2023-04-16T02:56:28.850Z,21.73
2023-04-16T02:57:28.996Z,21.73
2023-04-16T02:58:28.877Z,21.72
2023-04-16T02:59:28.878Z,21.73
2023-04-16T03:00:28.814Z,21.73
2023-04-16T03:01:28.847Z,21.72
2023-04-16T03:02:28.906Z,21.72
2023-04-16T03:03:28.882Z,21.73
2023-04-16T03:04:28.906Z,21.72
2023-04-16T03:05:28.803Z,21.72
2023-04-16T03:06:28.803Z,21.72
2023-04-16T03:07:28.759Z,21.72
2023-04-16T03:08:28.772Z,21.72
2023-04-16T03:09:28.799Z,21.72
2023-04-16T03:10:28.735Z,21.71
2023-04-16T03:11:28.758Z,21.71
2023-04-16T03:12:28.760Z,21.71
2023-04-16T03:13:28.765Z,21.71
2023-04-16T03:14:28.722Z,21.71
2023-04-16T03:15:28.863Z,21.70
2023-04-16T03:16:28.720Z,21.70
2023-04-16T03:17:28.785Z,21.70
2023-04-16T03:18:28.794Z,21.70
2023-04-16T03:19:28.655Z,21.70
2023-04-16T03:20:28.702Z,21.70
2023-04-16T03:21:28.694Z,21.70
2023-04-16T03:22:28.653Z,21.70
2023-04-16T03:23:28.668Z,21.70
2023-04-16T03:24:28.673Z,21.69
2023-04-16T03:25:28.638Z,21.69
2023-04-16T03:26:28.762Z,21.70
2023-04-16T03:27:28.766Z,21.69
2023-04-16T03:28:28.829Z,21.70
2023-04-16T03:29:28.865Z,21.69
2023-04-16T03:30:28.927Z,21.69
2023-04-16T03:31:29.016Z,21.69
2023-04-16T03:32:29.124Z,21.69
2023-04-16T03:33:29.104Z,21.68
2023-04-16T03:34:29.158Z,21.69
2023-04-16T03:35:29.161Z,21.68
2023-04-16T03:36:29.261Z,21.69
2023-04-16T03:37:29.284Z,21.69
2023-04-16T03:38:29.392Z,21.69
2023-04-16T03:39:29.408Z,21.69
2023-04-16T03:40:29.460Z,21.69
2023-04-16T03:41:29.500Z,21.70
2023-04-16T03:42:29.574Z,21.69
2023-04-16T03:43:29.634Z,21.70
2023-04-16T03:44:29.686Z,21.69
2023-04-16T03:45:29.743Z,21.69
2023-04-16T03:46:29.852Z,21.69
2023-04-16T03:47:29.831Z,21.69
2023-04-16T03:48:29.885Z,21.69
2023-04-16T03:49:29.975Z,21.69
2023-04-16T03:50:29.998Z,21.69
2023-04-16T03:51:30.070Z,21.69
2023-04-16T03:52:30.191Z,21.69
2023-04-16T03:53:30.216Z,21.69
2023-04-16T03:54:30.273Z,21.69
2023-04-16T03:55:30.322Z,21.69
2023-04-16T03:56:30.388Z,21.69
2023-04-16T03:57:30.421Z,21.69
2023-04-16T03:58:30.505Z,21.69
2023-04-16T03:59:30.533Z,21.68
2023-04-16T04:00:31.064Z,21.69
2023-04-16T04:01:30.678Z,21.68
2023-04-16T04:02:30.846Z,21.69
2023-04-16T04:03:30.976Z,21.69
2023-04-16T04:04:30.985Z,21.69
2023-04-16T04:05:30.870Z,21.70
2023-04-16T04:06:30.921Z,21.70
2023-04-16T04:07:30.970Z,21.69
2023-04-16T04:08:31.019Z,21.69
2023-04-16T04:09:31.063Z,21.70
2023-04-16T04:10:31.153Z,21.70
2023-04-16T04:11:31.165Z,21.70
2023-04-16T04:12:31.213Z,21.70
2023-04-16T04:13:31.250Z,21.69
2023-04-16T04:14:31.302Z,21.69
2023-04-16T04:15:31.330Z,21.69
2023-04-16T04:16:31.419Z,21.69
2023-04-16T04:17:31.479Z,21.69
2023-04-16T04:18:31.457Z,21.69
2023-04-16T04:19:31.474Z,21.69
2023-04-16T04:20:31.497Z,21.69
2023-04-16T04:21:31.578Z,21.69
2023-04-16T04:22:31.640Z,21.69
2023-04-16T04:23:31.705Z,21.69
2023-04-16T04:24:31.837Z,21.69
2023-04-16T04:25:31.822Z,21.69
2023-04-16T04:26:31.923Z,21.69
2023-04-16T04:27:31.924Z,21.69
2023-04-16T04:28:31.933Z,21.70
2023-04-16T04:29:31.984Z,21.70
2023-04-16T04:30:32.070Z,21.69
2023-04-16T04:31:32.167Z,21.69
2023-04-16T04:32:32.189Z,21.69
2023-04-16T04:33:32.204Z,21.69
2023-04-16T04:34:32.278Z,21.69
2023-04-16T04:35:32.595Z,21.70
2023-04-16T04:36:32.396Z,21.70
2023-04-16T04:37:32.512Z,21.71
2023-04-16T04:38:32.551Z,21.71
2023-04-16T04:39:32.565Z,21.71
2023-04-16T04:40:32.657Z,21.71
2023-04-16T04:41:32.717Z,21.72
2023-04-16T04:42:32.760Z,21.72
2023-04-16T04:43:32.866Z,21.72
2023-04-16T04:44:32.861Z,21.72
2023-04-16T04:45:32.987Z,21.73
2023-04-16T04:46:33.020Z,21.73
2023-04-16T04:47:33.043Z,21.73
2023-04-16T04:48:33.159Z,21.73
2023-04-16T04:49:33.212Z,21.73
2023-04-16T04:50:33.268Z,21.74
2023-04-16T04:51:33.322Z,21.74
2023-04-16T04:52:33.324Z,21.74
2023-04-16T04:53:33.381Z,21.74
2023-04-16T04:54:33.427Z,21.73
2023-04-16T04:55:33.544Z,21.73
2023-04-16T04:56:33.555Z,21.73
2023-04-16T04:57:33.622Z,21.74
2023-04-16T04:58:33.682Z,21.73
2023-04-16T04:59:33.717Z,21.74
2023-04-16T05:00:33.810Z,21.73
2023-04-16T05:01:33.909Z,21.73
2023-04-16T05:02:33.984Z,21.74
2023-04-16T05:03:34.046Z,21.73
2023-04-16T05:04:34.058Z,21.74
2023-04-16T05:05:34.079Z,21.73
2023-04-16T05:06:34.148Z,21.74
2023-04-16T05:07:34.264Z,21.74
2023-04-16T05:08:35.073Z,21.74
2023-04-16T05:09:34.324Z,21.74
2023-04-16T05:10:34.437Z,21.74
2023-04-16T05:11:34.489Z,21.74
2023-04-16T05:12:34.538Z,21.75
2023-04-16T05:13:35.105Z,21.75
2023-04-16T05:14:34.647Z,21.74
2023-04-16T05:15:34.719Z,21.75
2023-04-16T05:16:34.826Z,21.75
2023-04-16T05:17:34.841Z,21.75
2023-04-16T05:18:34.853Z,21.75
2023-04-16T05:19:34.945Z,21.76
2023-04-16T05:20:35.006Z,21.76
2023-04-16T05:21:35.077Z,21.76
2023-04-16T05:22:35.117Z,21.77
2023-04-16T05:23:35.241Z,21.77
2023-04-16T05:24:35.229Z,21.77
2023-04-16T05:25:35.286Z,21.77
2023-04-16T05:26:35.390Z,21.78
2023-04-16T05:27:35.448Z,21.77
2023-04-16T05:28:35.459Z,21.77
2023-04-16T05:29:36.083Z,21.77
2023-04-16T05:30:35.600Z,21.77
2023-04-16T05:31:35.647Z,21.77
2023-04-16T05:32:36.571Z,21.77
2023-04-16T05:33:35.783Z,21.78
2023-04-16T05:34:35.806Z,21.77
2023-04-16T05:35:35.867Z,21.77
2023-04-16T05:36:35.990Z,21.77
2023-04-16T05:37:35.978Z,21.77
2023-04-16T05:38:36.091Z,21.77
2023-04-16T05:39:36.124Z,21.77
2023-04-16T05:40:36.212Z,21.77
2023-04-16T05:41:36.247Z,21.77
2023-04-16T05:42:36.321Z,21.77
2023-04-16T05:43:36.386Z,21.78
2023-04-16T05:44:36.446Z,21.77
2023-04-16T05:45:36.487Z,21.77
2023-04-16T05:46:36.591Z,21.78
2023-04-16T05:47:36.594Z,21.78
2023-04-16T05:48:36.667Z,21.78
2023-04-16T05:49:36.716Z,21.78
2023-04-16T05:50:36.792Z,21.78
2023-04-16T05:51:36.819Z,21.78
2023-04-16T05:52:36.899Z,21.80
2023-04-16T05:53:36.946Z,21.78
2023-04-16T05:54:37.020Z,21.79
2023-04-16T05:55:37.102Z,21.80
2023-04-16T05:56:37.141Z,21.80
2023-04-16T05:57:37.232Z,21.81
2023-04-16T05:58:37.278Z,21.82
2023-04-16T05:59:37.374Z,21.82
2023-04-16T06:00:37.421Z,21.83
2023-04-16T06:01:37.437Z,21.83
2023-04-16T06:02:37.693Z,21.84
2023-04-16T06:03:37.747Z,21.84
2023-04-16T06:04:37.629Z,21.85
2023-04-16T06:05:37.726Z,21.85
2023-04-16T06:06:37.758Z,21.87
2023-04-16T06:07:37.878Z,21.86
2023-04-16T06:08:37.891Z,21.87
2023-04-16T06:09:37.953Z,21.87
2023-04-16T06:10:37.944Z,21.88
2023-04-16T06:11:38.006Z,21.90
2023-04-16T06:12:38.051Z,21.90
2023-04-16T06:13:38.120Z,21.91
2023-04-16T06:14:38.164Z,21.91
2023-04-16T06:15:38.292Z,21.92
2023-04-16T06:16:38.222Z,21.93
2023-04-16T06:17:38.400Z,21.92
2023-04-16T06:18:38.356Z,21.93
2023-04-16T06:19:38.365Z,21.93
2023-04-16T06:20:38.432Z,21.93
2023-04-16T06:21:38.492Z,21.93
2023-04-16T06:22:38.525Z,21.93
2023-04-16T06:23:38.599Z,21.93
2023-04-16T06:24:38.602Z,21.94
2023-04-16T06:25:38.673Z,21.94
2023-04-16T06:26:38.717Z,21.95
2023-04-16T06:27:38.699Z,21.95
2023-04-16T06:28:38.779Z,21.96
2023-04-16T06:29:41.396Z,21.96
2023-04-16T06:30:38.817Z,21.97
2023-04-16T06:31:38.819Z,21.98
2023-04-16T06:32:38.869Z,21.99
2023-04-16T06:33:38.768Z,21.99
2023-04-16T06:34:38.777Z,21.99
2023-04-16T06:35:38.776Z,22.00
2023-04-16T06:36:38.758Z,22.02
2023-04-16T06:37:38.804Z,22.02
2023-04-16T06:38:38.744Z,22.03
2023-04-16T06:39:38.746Z,22.03
2023-04-16T06:40:38.786Z,22.04
2023-04-16T06:41:38.754Z,22.04
2023-04-16T06:42:38.695Z,22.05
2023-04-16T06:43:38.736Z,22.06
2023-04-16T06:44:38.695Z,22.06
2023-04-16T06:45:38.683Z,22.07
2023-04-16T06:46:38.710Z,22.09
2023-04-16T06:47:38.731Z,22.09
2023-04-16T06:48:38.716Z,22.10
2023-04-16T06:49:38.659Z,22.12
2023-04-16T06:50:38.687Z,22.13
2023-04-16T06:51:38.661Z,22.15
2023-04-16T06:52:38.630Z,22.16
2023-04-16T06:53:38.677Z,22.17
2023-04-16T06:54:38.658Z,22.18
2023-04-16T06:55:38.607Z,22.18
2023-04-16T06:56:38.618Z,22.18
2023-04-16T06:57:38.589Z,22.19
2023-04-16T06:58:38.607Z,22.21
2023-04-16T06:59:38.584Z,22.21
2023-04-16T07:00:38.613Z,22.22
2023-04-16T07:01:38.615Z,22.24
2023-04-16T07:02:38.698Z,22.26
2023-04-16T07:03:38.852Z,22.28
2023-04-16T07:04:38.557Z,22.30
2023-04-16T07:05:38.667Z,22.30
2023-04-16T07:06:38.550Z,22.32
2023-04-16T07:07:38.548Z,22.33
2023-04-16T07:08:38.696Z,22.35
2023-04-16T07:09:38.534Z,22.35
2023-04-16T07:10:38.548Z,22.36
2023-04-16T07:11:38.538Z,22.36
2023-04-16T07:12:38.526Z,22.36
2023-04-16T07:13:38.480Z,22.36
2023-04-16T07:14:38.464Z,22.36
2023-04-16T07:15:38.540Z,22.35
2023-04-16T07:16:38.509Z,22.36
2023-04-16T07:17:38.545Z,22.37
2023-04-16T07:18:38.450Z,22.37
2023-04-16T07:19:38.443Z,22.37
2023-04-16T07:20:38.414Z,22.38
2023-04-16T07:21:38.416Z,22.38
2023-04-16T07:22:38.417Z,22.39
2023-04-16T07:23:38.469Z,22.40
2023-04-16T07:24:38.401Z,22.40
2023-04-16T07:25:38.403Z,22.40
2023-04-16T07:26:38.389Z,22.40
2023-04-16T07:27:38.388Z,22.40
2023-04-16T07:28:38.417Z,22.41
2023-04-16T07:29:38.377Z,22.42
2023-04-16T07:30:38.397Z,22.42
2023-04-16T07:31:38.448Z,22.44
2023-04-16T07:32:38.464Z,22.45
2023-04-16T07:33:38.334Z,22.45
2023-04-16T07:34:38.338Z,22.46
2023-04-16T07:35:38.369Z,22.47
2023-04-16T07:36:38.355Z,22.47
2023-04-16T07:37:38.324Z,22.48
2023-04-16T07:38:38.335Z,22.49
2023-04-16T07:39:38.343Z,22.49
2023-04-16T07:40:38.292Z,22.48
2023-04-16T07:41:38.298Z,22.47
2023-04-16T07:42:38.281Z,22.48
2023-04-16T07:43:38.310Z,22.49
2023-04-16T07:44:38.268Z,22.48
2023-04-16T07:45:38.285Z,22.48
2023-04-16T07:46:46.466Z,22.49
2023-04-16T07:47:39.237Z,22.48
2023-04-16T07:48:38.225Z,22.49
2023-04-16T07:49:38.229Z,22.50
2023-04-16T07:50:38.228Z,22.50
2023-04-16T07:51:38.241Z,22.50
2023-04-16T07:52:38.238Z,22.51
2023-04-16T07:53:38.225Z,22.52
2023-04-16T07:54:38.236Z,22.52
2023-04-16T07:55:38.159Z,22.52
2023-04-16T07:56:38.179Z,22.53
2023-04-16T07:57:38.205Z,22.54
2023-04-16T07:58:38.186Z,22.55
2023-04-16T07:59:38.165Z,22.57
2023-04-16T08:00:38.159Z,22.60
2023-04-16T08:01:38.180Z,22.62
2023-04-16T08:02:38.370Z,22.64
2023-04-16T08:03:38.330Z,22.67
2023-04-16T08:04:38.295Z,22.68
2023-04-16T08:05:38.212Z,22.70
2023-04-16T08:06:38.218Z,22.71
2023-04-16T08:07:38.270Z,22.71
2023-04-16T08:08:38.345Z,22.73
2023-04-16T08:09:38.380Z,22.73
2023-04-16T08:10:38.496Z,22.74
2023-04-16T08:11:38.539Z,22.76
2023-04-16T08:12:38.531Z,22.76
2023-04-16T08:13:38.563Z,22.78
2023-04-16T08:14:38.605Z,22.79
2023-04-16T08:15:38.704Z,22.80
2023-04-16T08:16:38.826Z,22.82
2023-04-16T08:17:38.851Z,22.83
2023-04-16T08:18:38.852Z,22.83
2023-04-16T08:19:38.922Z,22.84
2023-04-16T08:20:38.961Z,22.86
2023-04-16T08:21:39.064Z,22.86
2023-04-16T08:22:39.055Z,22.86
2023-04-16T08:23:39.138Z,22.87
2023-04-16T08:24:39.211Z,22.87
2023-04-16T08:25:39.262Z,22.87
2023-04-16T08:26:39.292Z,22.88
2023-04-16T08:27:39.371Z,22.89
2023-04-16T08:28:39.424Z,22.90
2023-04-16T08:29:39.489Z,22.92
2023-04-16T08:30:54.529Z,22.93
2023-04-16T08:31:39.700Z,22.92
2023-04-16T08:32:39.578Z,22.94
2023-04-16T08:33:39.535Z,22.96
2023-04-16T08:34:39.535Z,22.95
2023-04-16T08:35:39.545Z,22.97
2023-04-16T08:36:39.532Z,22.99
2023-04-16T08:37:39.516Z,23.00
2023-04-16T08:38:39.553Z,23.01
2023-04-16T08:39:39.518Z,23.03
2023-04-16T08:40:39.488Z,23.04
2023-04-16T08:41:39.472Z,23.05
2023-04-16T08:42:39.524Z,23.05
2023-04-16T08:43:39.478Z,23.06
2023-04-16T08:44:39.505Z,23.06
2023-04-16T08:45:39.436Z,23.07
2023-04-16T08:46:39.489Z,23.08
2023-04-16T08:47:39.482Z,23.08
2023-04-16T08:48:39.415Z,23.08
2023-04-16T08:49:39.427Z,23.09
2023-04-16T08:50:39.423Z,23.09
2023-04-16T08:51:39.388Z,23.10
2023-04-16T08:52:39.381Z,23.10
2023-04-16T08:53:39.461Z,23.10
2023-04-16T08:54:39.392Z,23.11
2023-04-16T08:55:39.357Z,23.11
2023-04-16T08:56:40.761Z,23.12
2023-04-16T08:57:39.362Z,23.13
2023-04-16T08:58:39.490Z,23.14
2023-04-16T08:59:39.330Z,23.13
2023-04-16T09:00:39.392Z,23.15
2023-04-16T09:01:39.405Z,23.15
2023-04-16T09:02:39.850Z,23.16
2023-04-16T09:03:39.559Z,23.16
2023-04-16T09:04:39.574Z,23.18
2023-04-16T09:05:39.540Z,23.19
2023-04-16T09:06:39.540Z,23.20
2023-04-16T09:07:39.748Z,23.20
2023-04-16T09:08:39.953Z,23.20
2023-04-16T09:09:39.761Z,23.22
2023-04-16T09:10:39.624Z,23.23
2023-04-16T09:11:39.611Z,23.23
2023-04-16T09:12:39.686Z,23.25
2023-04-16T09:13:39.794Z,23.26
2023-04-16T09:14:39.894Z,23.28
2023-04-16T09:15:39.913Z,23.29
2023-04-16T09:16:40.055Z,23.31
2023-04-16T09:17:39.972Z,23.32
2023-04-16T09:18:39.919Z,23.33
2023-04-16T09:19:39.925Z,23.35
2023-04-16T09:20:39.989Z,23.36
2023-04-16T09:21:39.894Z,23.37
2023-04-16T09:22:39.969Z,23.38
2023-04-16T09:23:40.099Z,23.40
2023-04-16T09:24:40.066Z,23.41
2023-04-16T09:25:40.084Z,23.41
2023-04-16T09:26:40.123Z,23.42
2023-04-16T09:27:40.133Z,23.42
2023-04-16T09:28:40.102Z,23.43
2023-04-16T09:29:40.205Z,23.42
2023-04-16T09:30:40.334Z,23.42
2023-04-16T09:31:40.397Z,23.43
2023-04-16T09:32:40.362Z,23.42
2023-04-16T09:33:40.339Z,23.41
2023-04-16T09:34:40.376Z,23.42
2023-04-16T09:35:40.372Z,23.42
2023-04-16T09:36:40.493Z,23.43
2023-04-16T09:37:40.580Z,23.43
2023-04-16T09:38:40.674Z,23.43
2023-04-16T09:39:40.786Z,23.44
2023-04-16T09:40:40.903Z,23.45
2023-04-16T09:41:40.933Z,23.45
2023-04-16T09:42:41.123Z,23.46
2023-04-16T09:43:41.179Z,23.47
2023-04-16T09:44:41.275Z,23.48
2023-04-16T09:45:41.346Z,23.47
2023-04-16T09:46:41.343Z,23.49
2023-04-16T09:47:41.502Z,23.50
2023-04-16T09:48:41.353Z,23.51
2023-04-16T09:49:41.365Z,23.54
2023-04-16T09:50:41.372Z,23.56
2023-04-16T09:51:41.343Z,23.57
2023-04-16T09:52:41.392Z,23.58
2023-04-16T09:53:41.324Z,23.60
2023-04-16T09:54:41.403Z,23.60
2023-04-16T09:55:41.453Z,23.62
2023-04-16T09:56:41.573Z,23.63
2023-04-16T09:57:41.621Z,23.64
2023-04-16T09:58:41.742Z,23.66
2023-04-16T09:59:41.776Z,23.67
2023-04-16T10:00:43.604Z,23.68
2023-04-16T10:01:42.021Z,23.70
2023-04-16T10:02:42.441Z,23.72
2023-04-16T10:03:42.242Z,23.74
2023-04-16T10:04:42.100Z,23.75
2023-04-16T10:05:42.122Z,23.76
2023-04-16T10:06:42.204Z,23.76
2023-04-16T10:07:42.243Z,23.78
2023-04-16T10:08:42.265Z,23.78
2023-04-16T10:09:42.354Z,23.80
2023-04-16T10:10:42.440Z,23.81
2023-04-16T10:11:42.465Z,23.82
2023-04-16T10:12:42.540Z,23.83
2023-04-16T10:13:42.605Z,23.84
2023-04-16T10:14:42.690Z,23.86
2023-04-16T10:15:42.714Z,23.87
2023-04-16T10:16:42.772Z,23.89
2023-04-16T10:17:42.844Z,23.89
2023-04-16T10:18:42.886Z,23.91
2023-04-16T10:19:42.935Z,23.91
2023-04-16T10:20:43.006Z,23.91
2023-04-16T10:21:43.067Z,23.92
2023-04-16T10:22:43.115Z,23.93
2023-04-16T10:23:43.162Z,23.95
2023-04-16T10:24:43.199Z,23.96
2023-04-16T10:25:43.317Z,23.97
2023-04-16T10:26:43.399Z,23.98
2023-04-16T10:27:43.414Z,23.99
2023-04-16T10:28:43.532Z,23.99
2023-04-16T10:29:43.490Z,24.00
2023-04-16T10:30:43.556Z,24.01
2023-04-16T10:31:43.723Z,24.02
2023-04-16T10:32:43.639Z,24.03
2023-04-16T10:33:43.652Z,24.04
2023-04-16T10:34:43.794Z,24.04
2023-04-16T10:35:43.716Z,24.05
2023-04-16T10:36:43.782Z,24.06
2023-04-16T10:37:43.858Z,24.05
2023-04-16T10:38:43.874Z,24.07
2023-04-16T10:39:43.897Z,24.08
2023-04-16T10:40:43.967Z,24.08
2023-04-16T10:41:43.975Z,24.09
2023-04-16T10:42:43.967Z,24.10
2023-04-16T10:43:44.058Z,24.10
2023-04-16T10:44:45.433Z,24.12
2023-04-16T10:45:44.150Z,24.12
2023-04-16T10:46:44.142Z,24.13
2023-04-16T10:47:44.298Z,24.13
2023-04-16T10:49:44.312Z,24.15
2023-04-16T10:50:44.536Z,24.16
2023-04-16T10:51:44.181Z,24.16
2023-04-16T10:52:44.185Z,24.18
2023-04-16T10:53:44.187Z,24.18
2023-04-16T10:54:44.178Z,24.18
2023-04-16T10:55:44.165Z,24.18
2023-04-16T10:56:44.175Z,24.18
2023-04-16T10:57:44.481Z,24.18
2023-04-16T10:58:44.122Z,24.19
2023-04-16T10:59:44.141Z,24.18
2023-04-16T11:00:44.140Z,24.18
2023-04-16T11:01:44.199Z,24.17
2023-04-16T11:02:44.384Z,24.16
2023-04-16T11:03:44.380Z,24.16
2023-04-16T11:04:44.216Z,24.15
2023-04-16T11:05:44.134Z,24.15
2023-04-16T11:06:44.081Z,24.14
2023-04-16T11:07:44.078Z,24.13
2023-04-16T11:08:54.038Z,24.13
2023-04-16T11:09:45.067Z,24.11
2023-04-16T11:10:44.067Z,24.11
2023-04-16T11:11:44.012Z,24.10
2023-04-16T11:12:44.068Z,24.10
2023-04-16T11:13:44.021Z,24.09
2023-04-16T11:14:44.038Z,24.08
2023-04-16T11:15:44.049Z,24.08
2023-04-16T11:16:44.001Z,24.08
2023-04-16T11:17:44.106Z,24.07
2023-04-16T11:18:51.287Z,24.08
2023-04-16T11:19:44.975Z,24.07
2023-04-16T11:20:43.956Z,24.07
2023-04-16T11:21:43.954Z,24.06
2023-04-16T11:22:43.966Z,24.07
2023-04-16T11:23:43.939Z,24.06
2023-04-16T11:24:43.952Z,24.05
2023-04-16T11:25:43.957Z,24.04
2023-04-16T11:26:43.897Z,24.04
2023-04-16T11:27:43.900Z,24.03
2023-04-16T11:28:43.920Z,24.03
2023-04-16T11:29:45.714Z,24.03
2023-04-16T11:30:43.989Z,24.02
2023-04-16T11:31:44.002Z,24.01
2023-04-16T11:32:43.915Z,23.99
2023-04-16T11:33:43.923Z,23.99
2023-04-16T11:34:43.851Z,23.98
2023-04-16T11:35:43.878Z,23.97
2023-04-16T11:36:43.889Z,23.96
2023-04-16T11:37:43.937Z,23.96
2023-04-16T11:38:43.838Z,23.95
2023-04-16T11:39:43.851Z,23.95
2023-04-16T11:40:43.864Z,23.96
2023-04-16T11:41:43.859Z,23.97
2023-04-16T11:42:43.929Z,23.98
2023-04-16T11:43:43.841Z,23.99
2023-04-16T11:44:43.876Z,24.00
2023-04-16T11:45:43.854Z,24.01
2023-04-16T11:46:43.833Z,24.02
2023-04-16T11:47:43.846Z,24.04
2023-04-16T11:48:43.890Z,24.04
2023-04-16T11:49:43.758Z,24.05
2023-04-16T11:50:43.764Z,24.05
2023-04-16T11:51:43.775Z,24.05
2023-04-16T11:52:43.778Z,24.05
2023-04-16T11:53:43.734Z,24.05
2023-04-16T11:54:43.739Z,24.05
2023-04-16T11:55:43.756Z,24.05
2023-04-16T11:56:43.762Z,24.06
2023-04-16T11:57:43.708Z,24.05
2023-04-16T11:58:43.700Z,24.05
2023-04-16T12:00:02.165Z,24.06
2023-04-16T12:00:44.703Z,24.06
2023-04-16T12:01:43.728Z,24.07
2023-04-16T12:02:43.861Z,24.08
2023-04-16T12:03:44.006Z,24.08
2023-04-16T12:04:43.773Z,24.09
2023-04-16T12:05:43.654Z,24.09
2023-04-16T12:06:43.661Z,24.09
2023-04-16T12:07:43.668Z,24.09
2023-04-16T12:08:43.633Z,24.09
2023-04-16T12:09:43.654Z,24.07
2023-04-16T12:10:43.638Z,24.06
2023-04-16T12:11:43.613Z,24.05
2023-04-16T12:12:43.616Z,24.04
2023-04-16T12:13:43.659Z,24.02
2023-04-16T12:14:43.674Z,24.02
2023-04-16T12:15:43.729Z,24.01
2023-04-16T12:16:43.815Z,24.00
2023-04-16T12:17:43.865Z,23.98
2023-04-16T12:18:43.852Z,23.97
2023-04-16T12:19:43.917Z,23.97
2023-04-16T12:20:44.032Z,23.96
2023-04-16T12:21:44.026Z,23.96
2023-04-16T12:22:44.032Z,23.94
2023-04-16T12:23:44.087Z,23.94
2023-04-16T12:24:44.155Z,23.94
2023-04-16T12:25:44.208Z,23.94
2023-04-16T12:26:44.218Z,23.93
2023-04-16T12:27:44.321Z,23.92
2023-04-16T12:28:44.995Z,23.91
2023-04-16T12:29:44.389Z,23.91
2023-04-16T12:30:44.476Z,23.90
2023-04-16T12:31:44.513Z,23.90
2023-04-16T12:32:44.582Z,23.88
2023-04-16T12:33:44.624Z,23.88
2023-04-16T12:34:48.774Z,23.87
2023-04-16T12:35:44.687Z,23.85
2023-04-16T12:36:44.669Z,23.85
2023-04-16T12:37:44.646Z,23.84
2023-04-16T12:38:44.650Z,23.84
2023-04-16T12:39:46.304Z,23.83
2023-04-16T12:40:44.732Z,23.83
2023-04-16T12:41:44.622Z,23.83
2023-04-16T12:42:44.618Z,23.83
2023-04-16T12:43:44.625Z,23.84
2023-04-16T12:44:44.590Z,23.84
2023-04-16T12:45:44.671Z,23.85
2023-04-16T12:46:44.755Z,23.84
2023-04-16T12:47:44.643Z,23.84
2023-04-16T12:48:44.630Z,23.84
2023-04-16T12:49:44.636Z,23.83
2023-04-16T12:50:44.698Z,23.84
2023-04-16T12:51:44.606Z,23.84
2023-04-16T12:52:44.590Z,23.84
2023-04-16T12:53:44.560Z,23.85